Ana Sayfa
METAR-TAF:

METAR-TAF

Havaalanları :

Çongçing Jiangbei Uluslararası Havalimanı

Çongçing, Çin

Enlem: 29-31N, Boylam: 106-29E, yükseklik: 351 m

Güncel hava durumu gözlemi

Rapor saat 10:00 UTC de 37 dakika önce yapıldı.
Rüzgar kuzey/kuzeydoğudan 6 kt
Sıcaklık 7°C
Nem 70%
Basınç 1025 hPa
Görüş mesafesi 10 km veya daha fazla
2600 ft yükseklikte parçalı bulutlu

METAR: ZUCK 101000Z 03003MPS 9999 SCT026 07/02 Q1025 NOSIG

Saat: 18:37 (10:37 UTC)

Tahmin

Rapor saat 03:02 UTC de 7 saat ve 35 dakika önce yapıldı.
Ayın 10'si saat 06 UTC'den ayın 11'si saat 06 UTC'ye kadar geçerli Tahmin
Rüzgar kuzeydoğudan 6 kt
Görüş mesafesi: 6000 m
4000 ft yükseklikte parçalı bulutlu

TAF: ZUCK 100302Z 1006/1106 04003MPS 6000 SCT040 TX08/1008Z TN03/1023Z

4.000'den fazla havaalanı için hava durumu gözlemleri ve tahminleri (METAR ve TAF raporları).

Kullanılabilir istasyonlar harita üzerinde sarı ve kırmızı noktalarla gösterilir.

İstasyonun adını görmek için fareyi noktanın üzerinde gezdirin.

Sonrasında hava gözlem ve tahminlerini görmek için tıklayın.

Haritayı değiştirmek için: yaklaştırmak için siyah artı işaretli yeşil düğmeye ve uzaklaştırmak için de eksi işaretli düğmeye hızla tıklayın; bitişik haritalar için yeşil okları kullanın.


METAR-TAF: